createdAt,value
2017-04-18T00:00:20.242Z,4.24
2017-04-18T00:01:20.194Z,4.14
2017-04-18T00:02:20.176Z,4.11
2017-04-18T00:03:20.150Z,4.11
2017-04-18T00:04:20.380Z,4.14
2017-04-18T00:05:20.147Z,4.06
2017-04-18T00:06:20.074Z,3.98
2017-04-18T00:07:20.052Z,3.99
2017-04-18T00:08:20.027Z,3.93
2017-04-18T00:09:19.997Z,3.9
2017-04-18T00:10:19.974Z,3.96
2017-04-18T00:11:19.945Z,3.92
2017-04-18T00:12:19.922Z,3.92
2017-04-18T00:13:19.891Z,3.93
2017-04-18T00:14:19.868Z,3.9
2017-04-18T00:15:19.836Z,3.88
2017-04-18T00:16:19.819Z,3.75
2017-04-18T00:17:19.940Z,3.75
2017-04-18T00:18:19.763Z,3.8
2017-04-18T00:19:19.734Z,3.77
2017-04-18T00:20:19.714Z,3.7
2017-04-18T00:21:19.683Z,3.7
2017-04-18T00:22:19.656Z,3.68
2017-04-18T00:23:19.682Z,3.63
2017-04-18T00:24:19.601Z,3.67
2017-04-18T00:25:19.578Z,3.71
2017-04-18T00:26:19.547Z,3.75
2017-04-18T00:27:19.528Z,3.71
2017-04-18T00:28:19.500Z,3.77
2017-04-18T00:29:19.477Z,3.8
2017-04-18T00:30:19.443Z,3.74
2017-04-18T00:31:19.413Z,3.77
2017-04-18T00:32:19.394Z,3.75
2017-04-18T00:33:19.368Z,3.88
2017-04-18T00:34:19.344Z,4.06
2017-04-18T00:35:19.316Z,4.21
2017-04-18T00:36:19.292Z,4.56
2017-04-18T00:37:19.261Z,4.61
2017-04-18T00:38:19.256Z,4.59
2017-04-18T00:39:19.215Z,4.62
2017-04-18T00:40:19.194Z,4.65
2017-04-18T00:41:19.169Z,4.65
2017-04-18T00:42:19.141Z,4.59
2017-04-18T00:43:19.107Z,4.56
2017-04-18T00:44:19.078Z,4.53
2017-04-18T00:45:19.052Z,4.59
2017-04-18T00:46:19.028Z,4.56
2017-04-18T00:47:19.010Z,4.71
2017-04-18T00:48:18.976Z,4.75
2017-04-18T00:49:18.949Z,4.68
2017-04-18T00:50:18.924Z,4.75
2017-04-18T00:51:18.902Z,4.93
2017-04-18T00:52:18.874Z,5.09
2017-04-18T00:53:18.898Z,5.04
2017-04-18T00:54:18.821Z,5.05
2017-04-18T00:55:18.801Z,5.01
2017-04-18T00:56:18.769Z,4.96
2017-04-18T00:57:18.736Z,4.86
2017-04-18T00:58:18.718Z,4.74
2017-04-18T00:59:18.692Z,4.74
2017-04-18T01:00:18.367Z,4.8
2017-04-18T01:01:18.635Z,4.68
2017-04-18T01:02:18.613Z,4.47
2017-04-18T01:03:18.594Z,4.5
2017-04-18T01:04:18.567Z,4.32
2017-04-18T01:05:18.541Z,4.25
2017-04-18T01:06:18.515Z,4.16
2017-04-18T01:07:18.493Z,4
2017-04-18T01:08:18.510Z,4
2017-04-18T01:09:18.445Z,3.92
2017-04-18T01:10:18.109Z,3.89
2017-04-18T01:11:18.386Z,3.84
2017-04-18T01:12:18.371Z,3.82
2017-04-18T01:13:18.331Z,3.78
2017-04-18T01:14:18.302Z,3.75
2017-04-18T01:15:18.287Z,3.75
2017-04-18T01:16:18.250Z,3.72
2017-04-18T01:17:18.231Z,3.68
2017-04-18T01:18:18.199Z,3.7
2017-04-18T01:19:18.172Z,3.7
2017-04-18T01:20:17.850Z,3.62
2017-04-18T01:21:18.124Z,3.62
2017-04-18T01:22:18.095Z,3.59
2017-04-18T01:23:18.078Z,3.56
2017-04-18T01:24:18.045Z,3.59
2017-04-18T01:25:18.417Z,3.57
2017-04-18T01:26:18.000Z,3.5
2017-04-18T01:27:18.015Z,3.46
2017-04-18T01:28:17.939Z,3.56
2017-04-18T01:29:17.909Z,3.6
2017-04-18T01:30:17.979Z,3.57
2017-04-18T01:31:18.066Z,3.54
2017-04-18T01:32:17.847Z,3.54
2017-04-18T01:33:19.116Z,3.59
2017-04-18T01:34:17.783Z,3.64
2017-04-18T01:36:17.733Z,3.64
2017-04-18T01:37:17.719Z,3.57
2017-04-18T01:38:17.685Z,3.59
2017-04-18T01:39:17.660Z,3.57
2017-04-18T01:40:17.627Z,3.62
2017-04-18T01:41:17.610Z,3.71
2017-04-18T01:42:17.677Z,3.63
2017-04-18T01:43:17.555Z,3.71
2017-04-18T01:44:17.523Z,3.67
2017-04-18T01:45:17.504Z,3.6
2017-04-18T01:46:17.477Z,3.63
2017-04-18T01:47:17.494Z,3.57
2017-04-18T01:48:17.719Z,3.52
2017-04-18T01:49:17.398Z,3.54
2017-04-18T01:50:17.362Z,3.54
2017-04-18T01:51:17.341Z,3.53
2017-04-18T01:52:18.717Z,3.56
2017-04-18T01:53:17.294Z,3.53
2017-04-18T01:54:17.263Z,3.6
2017-04-18T01:55:17.253Z,3.6
2017-04-18T01:56:17.209Z,3.6
2017-04-18T01:57:17.186Z,3.54
2017-04-18T01:58:17.203Z,3.6
2017-04-18T01:59:17.131Z,3.59
2017-04-18T02:00:17.114Z,3.54
2017-04-18T02:01:17.083Z,3.56
2017-04-18T02:02:17.060Z,3.56
2017-04-18T02:03:17.038Z,3.56
2017-04-18T02:04:17.002Z,3.52
2017-04-18T02:05:17.024Z,3.59
2017-04-18T02:06:16.945Z,3.52
2017-04-18T02:07:16.918Z,3.54
2017-04-18T02:08:16.907Z,3.56
2017-04-18T02:09:16.880Z,3.56
2017-04-18T02:10:16.843Z,3.5
2017-04-18T02:11:16.817Z,3.53
2017-04-18T02:12:16.792Z,3.37
2017-04-18T02:13:16.768Z,3.45
2017-04-18T02:14:17.938Z,3.46
2017-04-18T02:15:16.718Z,3.39
2017-04-18T02:16:16.714Z,3.46
2017-04-18T02:17:16.408Z,3.31
2017-04-18T02:18:16.629Z,3.25
2017-04-18T02:19:16.603Z,3.28
2017-04-18T02:20:16.576Z,3.28
2017-04-18T02:21:16.553Z,3.33
2017-04-18T02:22:16.520Z,3.25
2017-04-18T02:23:16.611Z,3.22
2017-04-18T02:24:16.468Z,3.23
2017-04-18T02:25:16.444Z,3.26
2017-04-18T02:26:17.027Z,3.31
2017-04-18T02:27:16.396Z,3.33
2017-04-18T02:28:16.373Z,3.33
2017-04-18T02:29:16.398Z,3.26
2017-04-18T02:30:16.016Z,3.22
2017-04-18T02:31:16.286Z,3.31
2017-04-18T02:32:15.963Z,3.31
2017-04-18T02:33:16.237Z,3.3
2017-04-18T02:34:16.222Z,3.31
2017-04-18T02:35:16.179Z,3.28
2017-04-18T02:36:15.856Z,3.26
2017-04-18T02:37:16.381Z,3.28
2017-04-18T02:38:15.815Z,3.33
2017-04-18T02:39:16.079Z,3.34
2017-04-18T02:40:16.052Z,3.3
2017-04-18T02:41:16.050Z,3.3
2017-04-18T02:42:16.011Z,3.33
2017-04-18T02:43:15.970Z,3.31
2017-04-18T02:44:15.946Z,3.33
2017-04-18T02:45:15.924Z,3.26
2017-04-18T02:46:15.890Z,3.26
2017-04-18T02:47:15.868Z,3.3
2017-04-18T02:48:15.698Z,3.3
2017-04-18T02:49:15.821Z,3.28
2017-04-18T02:50:15.787Z,3.3
2017-04-18T02:51:15.761Z,3.26
2017-04-18T02:52:15.744Z,3.3
2017-04-18T02:53:15.710Z,3.25
2017-04-18T02:54:15.681Z,3.35
2017-04-18T02:55:15.658Z,3.41
2017-04-18T02:56:15.640Z,3.28
2017-04-18T02:57:15.599Z,3.41
2017-04-18T02:58:15.573Z,3.28
2017-04-18T02:59:15.554Z,3.26
2017-04-18T03:00:15.627Z,3.25
2017-04-18T03:01:15.502Z,3.34
2017-04-18T03:02:15.465Z,3.26
2017-04-18T03:03:15.436Z,3.25
2017-04-18T03:04:15.425Z,3.31
2017-04-18T03:05:15.387Z,3.25
2017-04-18T03:06:15.364Z,3.23
2017-04-18T03:07:15.335Z,3.26
2017-04-18T03:08:15.312Z,3.26
2017-04-18T03:09:15.289Z,3.25
2017-04-18T03:10:15.258Z,3.26
2017-04-18T03:11:15.242Z,3.15
2017-04-18T03:12:15.205Z,3.13
2017-04-18T03:13:15.183Z,3.12
2017-04-18T03:14:15.154Z,3.02
2017-04-18T03:15:14.826Z,3.01
2017-04-18T03:16:15.100Z,3.05
2017-04-18T03:17:15.123Z,3.12
2017-04-18T03:18:15.097Z,3.04
2017-04-18T03:19:15.020Z,2.98
2017-04-18T03:20:15.005Z,3.02
2017-04-18T03:21:14.973Z,2.98
2017-04-18T03:22:14.945Z,2.95
2017-04-18T03:23:14.921Z,2.92
2017-04-18T03:24:14.892Z,2.86
2017-04-18T03:25:14.860Z,2.87
2017-04-18T03:26:14.844Z,2.81
2017-04-18T03:27:14.804Z,2.81
2017-04-18T03:28:14.832Z,2.84
2017-04-18T03:29:14.768Z,2.79
2017-04-18T03:30:14.985Z,2.71
2017-04-18T03:31:14.701Z,2.84
2017-04-18T03:32:14.680Z,2.8
2017-04-18T03:33:14.655Z,2.84
2017-04-18T03:34:14.625Z,2.79
2017-04-18T03:35:14.596Z,2.66
2017-04-18T03:36:14.569Z,2.77
2017-04-18T03:37:14.635Z,2.73
2017-04-18T03:38:14.520Z,2.68
2017-04-18T03:39:14.494Z,2.69
2017-04-18T03:40:14.469Z,2.74
2017-04-18T03:41:14.441Z,2.71
2017-04-18T03:42:14.409Z,2.66
2017-04-18T03:43:14.383Z,2.66
2017-04-18T03:44:14.066Z,2.65
2017-04-18T03:45:14.330Z,2.59
2017-04-18T03:46:14.306Z,2.5
2017-04-18T03:47:14.280Z,2.63
2017-04-18T03:48:14.255Z,2.61
2017-04-18T03:49:14.234Z,2.61
2017-04-18T03:50:14.201Z,2.55
2017-04-18T03:51:14.172Z,2.63
2017-04-18T03:52:14.142Z,2.53
2017-04-18T03:53:14.129Z,2.47
2017-04-18T03:54:14.091Z,2.5
2017-04-18T03:55:14.067Z,2.43
2017-04-18T03:56:14.056Z,2.41
2017-04-18T03:57:13.712Z,2.45
2017-04-18T03:58:13.989Z,2.45
2017-04-18T03:59:13.964Z,2.43
2017-04-18T04:00:15.276Z,2.51
2017-04-18T04:01:13.903Z,2.47
2017-04-18T04:02:13.884Z,2.5
2017-04-18T04:03:13.850Z,2.41
2017-04-18T04:04:13.835Z,2.44
2017-04-18T04:05:13.802Z,2.45
2017-04-18T04:06:13.770Z,2.41
2017-04-18T04:07:13.742Z,2.38
2017-04-18T04:08:13.718Z,2.38
2017-04-18T04:09:13.694Z,2.26
2017-04-18T04:10:13.658Z,2.4
2017-04-18T04:11:13.633Z,2.38
2017-04-18T04:12:13.654Z,2.36
2017-04-18T04:13:13.291Z,2.37
2017-04-18T04:14:13.569Z,2.56
2017-04-18T04:15:13.535Z,2.55
2017-04-18T04:16:13.501Z,2.58
2017-04-18T04:17:13.480Z,2.55
2017-04-18T04:18:13.154Z,2.51
2017-04-18T04:19:13.423Z,2.47
2017-04-18T04:20:13.398Z,2.61
2017-04-18T04:21:13.363Z,2.5
2017-04-18T04:22:13.342Z,2.56
2017-04-18T04:23:13.313Z,2.48
2017-04-18T04:24:13.294Z,2.55
2017-04-18T04:25:13.267Z,2.56
2017-04-18T04:26:13.233Z,2.5
2017-04-18T04:27:13.215Z,2.48
2017-04-18T04:28:13.185Z,2.48
2017-04-18T04:29:13.365Z,2.55
2017-04-18T04:30:13.128Z,2.61
2017-04-18T04:31:13.146Z,2.62
2017-04-18T04:32:13.073Z,2.65
2017-04-18T04:33:13.044Z,2.56
2017-04-18T04:34:13.017Z,2.56
2017-04-18T04:35:12.996Z,2.63
2017-04-18T04:36:13.021Z,2.58
2017-04-18T04:37:12.988Z,2.56
2017-04-18T04:38:12.919Z,2.51
2017-04-18T04:39:12.886Z,2.61
2017-04-18T04:40:12.851Z,2.56
2017-04-18T04:41:12.525Z,2.45
2017-04-18T04:42:12.803Z,2.5
2017-04-18T04:43:12.782Z,2.45
2017-04-18T04:44:12.800Z,2.43
2017-04-18T04:45:12.724Z,2.53
2017-04-18T04:46:12.744Z,2.5
2017-04-18T04:47:12.770Z,2.45
2017-04-18T04:48:12.650Z,2.41
2017-04-18T04:49:12.621Z,2.47
2017-04-18T04:50:12.586Z,2.5
2017-04-18T04:51:12.558Z,2.48
2017-04-18T04:52:12.535Z,2.36
2017-04-18T04:53:12.502Z,2.43
2017-04-18T04:54:12.479Z,2.44
2017-04-18T04:55:12.457Z,2.38
2017-04-18T04:56:12.432Z,2.43
2017-04-18T04:57:12.406Z,2.44
2017-04-18T04:58:12.374Z,2.43
2017-04-18T04:59:12.347Z,2.47
2017-04-18T05:00:12.325Z,2.45
2017-04-18T05:01:12.299Z,2.55
2017-04-18T05:02:11.965Z,2.45
2017-04-18T05:03:12.243Z,2.56
2017-04-18T05:04:12.215Z,2.47
2017-04-18T05:05:12.194Z,2.53
2017-04-18T05:06:12.168Z,2.58
2017-04-18T05:07:13.361Z,2.59
2017-04-18T05:08:12.106Z,2.53
2017-04-18T05:09:12.079Z,2.53
2017-04-18T05:10:12.656Z,2.51
2017-04-18T05:11:12.027Z,2.58
2017-04-18T05:12:11.999Z,2.59
2017-04-18T05:13:12.529Z,2.66
2017-04-18T05:14:11.948Z,2.61
2017-04-18T05:15:11.974Z,2.66
2017-04-18T05:16:11.646Z,2.74
2017-04-18T05:17:11.867Z,2.76
2017-04-18T05:18:11.840Z,2.69
2017-04-18T05:19:11.869Z,2.71
2017-04-18T05:20:11.811Z,2.74
2017-04-18T05:21:11.816Z,2.83
2017-04-18T05:22:11.784Z,2.81
2017-04-18T05:23:11.720Z,2.73
2017-04-18T05:24:11.693Z,2.77
2017-04-18T05:25:11.659Z,2.69
2017-04-18T05:26:11.374Z,2.76
2017-04-18T05:27:11.602Z,2.76
2017-04-18T05:28:11.624Z,2.71
2017-04-18T05:29:11.552Z,2.69
2017-04-18T05:30:11.524Z,2.66
2017-04-18T05:31:11.500Z,2.81
2017-04-18T05:32:11.175Z,2.86
2017-04-18T05:33:11.450Z,2.89
2017-04-18T05:34:11.715Z,2.98
2017-04-18T05:35:11.389Z,2.95
2017-04-18T05:36:11.362Z,2.99
2017-04-18T05:37:11.347Z,2.97
2017-04-18T05:38:11.320Z,3.01
2017-04-18T05:39:11.290Z,3.15
2017-04-18T05:40:11.265Z,3.12
2017-04-18T05:41:11.242Z,3.16
2017-04-18T05:42:11.210Z,3.13
2017-04-18T05:43:11.187Z,3.15
2017-04-18T05:44:11.158Z,3.15
2017-04-18T05:45:10.828Z,3.13
2017-04-18T05:46:11.098Z,3.16
2017-04-18T05:47:11.080Z,3.17
2017-04-18T05:48:11.053Z,3.28
2017-04-18T05:49:11.029Z,3.22
2017-04-18T05:50:10.999Z,3.26
2017-04-18T05:51:10.967Z,3.37
2017-04-18T05:52:10.640Z,3.31
2017-04-18T05:53:10.921Z,3.3
2017-04-18T05:54:10.901Z,3.37
2017-04-18T05:55:10.871Z,3.34
2017-04-18T05:56:10.842Z,3.3
2017-04-18T05:57:10.865Z,3.39
2017-04-18T05:58:10.791Z,3.5
2017-04-18T05:59:25.370Z,3.37
2017-04-18T06:00:10.736Z,3.45
2017-04-18T06:01:10.715Z,3.45
2017-04-18T06:02:10.699Z,3.59
2017-04-18T06:03:10.657Z,3.77
2017-04-18T06:04:10.631Z,4
2017-04-18T06:05:10.619Z,4.28
2017-04-18T06:06:10.581Z,4.68
2017-04-18T06:07:10.555Z,5.12
2017-04-18T06:08:10.531Z,5.52
2017-04-18T06:09:10.549Z,5.85
2017-04-18T06:10:10.487Z,6.27
2017-04-18T06:11:10.452Z,6.53
2017-04-18T06:12:10.137Z,6.71
2017-04-18T06:13:10.409Z,6.9
2017-04-18T06:14:10.381Z,7.21
2017-04-18T06:15:10.360Z,7.45
2017-04-18T06:16:10.337Z,7.47
2017-04-18T06:17:10.367Z,7.69
2017-04-18T06:18:10.297Z,7.81
2017-04-18T06:19:10.265Z,8
2017-04-18T06:20:10.260Z,8.14
2017-04-18T06:21:10.223Z,8.32
2017-04-18T06:22:10.198Z,8.52
2017-04-18T06:23:10.181Z,8.7
2017-04-18T06:24:10.162Z,8.82
2017-04-18T06:25:10.281Z,9
2017-04-18T06:26:09.929Z,9.06
2017-04-18T06:27:10.089Z,9.2
2017-04-18T06:28:10.072Z,9.41
2017-04-18T06:29:10.055Z,9.62
2017-04-18T06:30:10.022Z,9.67
2017-04-18T06:31:10.005Z,9.77
2017-04-18T06:32:09.976Z,9.81
2017-04-18T06:33:09.965Z,9.92
2017-04-18T06:34:09.935Z,10.01
2017-04-18T06:35:09.974Z,10.06
2017-04-18T06:36:09.897Z,10.26
2017-04-18T06:37:09.870Z,10.29
2017-04-18T06:38:09.906Z,10.43
2017-04-18T06:39:10.085Z,10.49
2017-04-18T06:40:10.068Z,10.63
2017-04-18T06:41:09.798Z,10.87
2017-04-18T06:42:09.781Z,10.93
2017-04-18T06:43:09.752Z,10.58
2017-04-18T06:44:09.734Z,10.36
2017-04-18T06:45:09.710Z,10.31
2017-04-18T06:46:09.449Z,10.47
2017-04-18T06:47:09.669Z,10.68
2017-04-18T06:48:09.704Z,10.63
2017-04-18T06:49:09.671Z,10.54
2017-04-18T06:50:09.622Z,10.51
2017-04-18T06:51:09.590Z,10.69
2017-04-18T06:52:09.614Z,10.66
2017-04-18T06:53:09.543Z,10.93
2017-04-18T06:54:09.524Z,10.9
2017-04-18T06:55:09.504Z,10.99
2017-04-18T06:56:09.486Z,11.02
2017-04-18T06:57:09.169Z,11.16
2017-04-18T06:58:09.444Z,11.28
2017-04-18T06:59:09.438Z,11.41
2017-04-18T07:00:09.407Z,11.42
2017-04-18T07:01:09.383Z,11.41
2017-04-18T07:02:09.409Z,11.53
2017-04-18T07:03:09.440Z,11.59
2017-04-18T07:04:09.327Z,11.63
2017-04-18T07:05:09.147Z,11.62
2017-04-18T07:06:09.289Z,11.57
2017-04-18T07:07:09.265Z,11.82
2017-04-18T07:08:09.245Z,11.93
2017-04-18T07:09:09.276Z,12
2017-04-18T07:10:09.209Z,11.82
2017-04-18T07:11:09.200Z,11.74
2017-04-18T07:12:09.225Z,11.7
2017-04-18T07:13:09.156Z,11.87
2017-04-18T07:14:09.135Z,12.18
2017-04-18T07:15:09.119Z,12.48
2017-04-18T07:16:09.097Z,12.73
2017-04-18T07:17:09.090Z,12.41
2017-04-18T07:18:09.132Z,11.87
2017-04-18T07:19:09.044Z,11.39
2017-04-18T07:20:09.022Z,10.84
2017-04-18T07:21:08.704Z,10.52
2017-04-18T07:22:08.975Z,10.04
2017-04-18T07:23:08.967Z,9.81
2017-04-18T07:24:08.946Z,9.5
2017-04-18T07:25:08.920Z,9.24
2017-04-18T07:26:08.896Z,9.1
2017-04-18T07:27:08.875Z,9.03
2017-04-18T07:28:08.865Z,8.97
2017-04-18T07:29:08.563Z,8.85
2017-04-18T07:30:08.817Z,8.76
2017-04-18T07:31:08.496Z,8.76
2017-04-18T07:32:08.775Z,8.68
2017-04-18T07:33:08.796Z,8.91
2017-04-18T07:34:08.727Z,9.06
2017-04-18T07:35:08.703Z,9.58
2017-04-18T07:36:08.735Z,9.86
2017-04-18T07:37:08.678Z,10.29
2017-04-18T07:38:08.339Z,10.54
2017-04-18T07:39:08.636Z,10.95
2017-04-18T07:40:08.604Z,10.95
2017-04-18T07:41:08.281Z,10.87
2017-04-18T07:42:08.564Z,10.63
2017-04-18T07:43:08.537Z,10.55
2017-04-18T07:44:08.228Z,10.32
2017-04-18T07:45:08.499Z,9.95
2017-04-18T07:46:08.690Z,9.65
2017-04-18T07:47:08.459Z,9.37
2017-04-18T07:48:23.047Z,9.03
2017-04-18T07:49:08.414Z,8.94
2017-04-18T07:50:08.391Z,8.83
2017-04-18T07:51:08.383Z,8.64
2017-04-18T07:52:08.052Z,8.55
2017-04-18T07:53:08.341Z,8.52
2017-04-18T07:54:08.322Z,8.43
2017-04-18T07:55:08.495Z,8.36
2017-04-18T07:56:08.267Z,8.22
2017-04-18T07:57:08.240Z,8.22
2017-04-18T07:58:08.220Z,8.24
2017-04-18T07:59:08.198Z,8.18
2017-04-18T08:00:08.175Z,8.14
2017-04-18T08:01:08.191Z,8.07
2017-04-18T08:02:08.130Z,7.96
2017-04-18T08:03:08.208Z,8
2017-04-18T08:04:08.092Z,8.03
2017-04-18T08:05:08.074Z,7.92
2017-04-18T08:06:08.043Z,7.99
2017-04-18T08:07:08.029Z,8.09
2017-04-18T08:08:07.997Z,8.24
2017-04-18T08:09:07.979Z,8.5
2017-04-18T08:10:07.962Z,8.43
2017-04-18T08:11:07.933Z,8.43
2017-04-18T08:12:07.913Z,8.36
2017-04-18T08:13:08.042Z,8.36
2017-04-18T08:14:07.865Z,8.25
2017-04-18T08:15:07.883Z,8.18
2017-04-18T08:16:07.531Z,8.02
2017-04-18T08:17:07.796Z,7.89
2017-04-18T08:18:07.828Z,7.82
2017-04-18T08:19:07.759Z,7.77
2017-04-18T08:20:07.738Z,7.67
2017-04-18T08:21:07.759Z,7.63
2017-04-18T08:22:07.988Z,7.67
2017-04-18T08:23:07.663Z,7.76
2017-04-18T08:24:07.639Z,7.63
2017-04-18T08:25:07.621Z,7.54
2017-04-18T08:26:07.608Z,7.44
2017-04-18T08:27:07.571Z,7.44
2017-04-18T08:28:07.601Z,7.47
2017-04-18T08:29:07.555Z,7.5
2017-04-18T08:30:07.280Z,7.51
2017-04-18T08:31:07.485Z,7.48
2017-04-18T08:32:07.466Z,7.69
2017-04-18T08:33:07.435Z,7.69
2017-04-18T08:34:07.407Z,7.66
2017-04-18T08:35:07.437Z,7.69
2017-04-18T08:36:07.370Z,7.77
2017-04-18T08:37:07.350Z,7.77
2017-04-18T08:38:07.374Z,7.69
2017-04-18T08:39:07.299Z,7.63
2017-04-18T08:40:07.274Z,7.69
2017-04-18T08:41:07.258Z,7.7
2017-04-18T08:42:07.340Z,7.6
2017-04-18T08:43:07.212Z,7.45
2017-04-18T08:44:07.186Z,7.41
2017-04-18T08:45:07.169Z,7.26
2017-04-18T08:46:07.145Z,7.3
2017-04-18T08:47:07.126Z,7.23
2017-04-18T08:48:07.105Z,7.12
2017-04-18T08:49:07.078Z,7.08
2017-04-18T08:50:07.056Z,7.07
2017-04-18T08:51:07.025Z,7.07
2017-04-18T08:52:07.066Z,7.09
2017-04-18T08:53:06.977Z,6.97
2017-04-18T08:54:06.949Z,7
2017-04-18T08:55:06.932Z,6.91
2017-04-18T08:56:06.659Z,6.93
2017-04-18T08:57:06.878Z,6.82
2017-04-18T08:58:06.858Z,6.86
2017-04-18T08:59:06.835Z,6.86
2017-04-18T09:00:06.815Z,6.87
2017-04-18T09:01:06.795Z,6.79
2017-04-18T09:02:06.772Z,6.75
2017-04-18T09:03:21.058Z,6.76
2017-04-18T09:04:06.731Z,6.76
2017-04-18T09:05:06.693Z,6.73
2017-04-18T09:06:06.682Z,6.68
2017-04-18T09:07:06.657Z,6.65
2017-04-18T09:08:06.677Z,6.58
2017-04-18T09:09:06.613Z,6.6
2017-04-18T09:10:06.585Z,6.6
2017-04-18T09:11:06.556Z,6.5
2017-04-18T09:12:06.227Z,6.42
2017-04-18T09:13:06.525Z,6.24
2017-04-18T09:14:06.698Z,6.2
2017-04-18T09:15:06.457Z,5.99
2017-04-18T09:16:06.487Z,5.98
2017-04-18T09:17:06.419Z,5.87
2017-04-18T09:18:07.294Z,5.88
2017-04-18T09:19:06.594Z,5.84
2017-04-18T09:20:06.359Z,5.9
2017-04-18T09:21:06.312Z,5.92
2017-04-18T09:22:07.100Z,5.96
2017-04-18T09:23:06.276Z,6.06
2017-04-18T09:24:06.248Z,6.17
2017-04-18T09:25:06.269Z,6.3
2017-04-18T09:26:06.199Z,6.73
2017-04-18T09:27:06.177Z,7.36
2017-04-18T09:28:06.161Z,7.86
2017-04-18T09:29:06.128Z,8.21
2017-04-18T09:30:06.101Z,8.47
2017-04-18T09:31:06.088Z,8.5
2017-04-18T09:32:06.315Z,8.79
2017-04-18T09:33:05.741Z,8.88
2017-04-18T09:34:06.027Z,9
2017-04-18T09:35:06.216Z,9.13
2017-04-18T09:36:05.965Z,9.34
2017-04-18T09:37:05.945Z,9.85
2017-04-18T09:38:05.920Z,9.98
2017-04-18T09:39:05.921Z,9.88
2017-04-18T09:40:05.895Z,9.53
2017-04-18T09:41:05.859Z,9.2
2017-04-18T09:42:05.550Z,8.97
2017-04-18T09:43:05.839Z,8.79
2017-04-18T09:44:05.493Z,8.49
2017-04-18T09:45:05.775Z,8.45
2017-04-18T09:46:05.450Z,8.31
2017-04-18T09:47:05.728Z,8.24
2017-04-18T09:48:07.205Z,8.22
2017-04-18T09:49:05.683Z,8.43
2017-04-18T09:50:05.362Z,8.71
2017-04-18T09:51:05.352Z,9.41
2017-04-18T09:52:05.621Z,9.98
2017-04-18T09:53:05.601Z,10.65
2017-04-18T09:54:05.584Z,10.9
2017-04-18T09:55:05.556Z,11.36
2017-04-18T09:56:05.237Z,11.59
2017-04-18T09:57:05.520Z,11.59
2017-04-18T09:58:05.493Z,11.24
2017-04-18T09:59:05.524Z,10.7
2017-04-18T10:00:05.448Z,10.29
2017-04-18T10:01:05.424Z,10.02
2017-04-18T10:02:05.454Z,9.86
2017-04-18T10:03:05.396Z,9.83
2017-04-18T10:04:05.370Z,10.11
2017-04-18T10:05:05.353Z,10.51
2017-04-18T10:06:05.339Z,10.52
2017-04-18T10:07:05.318Z,10.25
2017-04-18T10:08:05.288Z,9.98
2017-04-18T10:09:05.274Z,9.73
2017-04-18T10:10:05.249Z,9.65
2017-04-18T10:11:05.233Z,9.4
2017-04-18T10:12:05.210Z,9.26
2017-04-18T10:13:05.190Z,9.23
2017-04-18T10:14:05.173Z,9.2
2017-04-18T10:15:05.150Z,9.41
2017-04-18T10:16:05.121Z,9.41
2017-04-18T10:17:05.706Z,9.38
2017-04-18T10:18:05.088Z,9.2
2017-04-18T10:19:05.058Z,9.24
2017-04-18T10:20:05.040Z,9.63
2017-04-18T10:21:05.022Z,9.91
2017-04-18T10:22:05.001Z,10.38
2017-04-18T10:23:05.179Z,10.68
2017-04-18T10:24:04.957Z,10.95
2017-04-18T10:25:04.935Z,11.27
2017-04-18T10:26:04.909Z,11.3
2017-04-18T10:27:04.296Z,11.39
2017-04-18T10:28:04.877Z,11.16
2017-04-18T10:29:04.864Z,10.86
2017-04-18T10:30:04.893Z,10.31
2017-04-18T10:31:04.815Z,9.91
2017-04-18T10:32:04.802Z,9.68
2017-04-18T10:33:04.824Z,9.37
2017-04-18T10:34:04.759Z,9.3
2017-04-18T10:35:04.736Z,9.1
2017-04-18T10:36:04.719Z,8.97
2017-04-18T10:37:04.393Z,8.85
2017-04-18T10:38:04.677Z,8.91
2017-04-18T10:39:04.651Z,8.82
2017-04-18T10:40:04.627Z,8.65
2017-04-18T10:41:04.307Z,8.71
2017-04-18T10:42:04.291Z,8.68
2017-04-18T10:43:04.649Z,8.7
2017-04-18T10:44:04.594Z,8.67
2017-04-18T10:45:04.518Z,8.71
2017-04-18T10:46:04.500Z,8.7
2017-04-18T10:47:04.474Z,8.96
2017-04-18T10:48:04.455Z,8.94
2017-04-18T10:49:06.386Z,9.01
2017-04-18T10:50:05.874Z,9.1
2017-04-18T10:51:04.386Z,8.97
2017-04-18T10:52:04.383Z,9.01
2017-04-18T10:54:04.677Z,8.8
2017-04-18T10:55:04.299Z,8.71
2017-04-18T10:56:04.277Z,8.67
2017-04-18T10:57:04.269Z,8.65
2017-04-18T10:58:04.246Z,8.6
2017-04-18T10:59:04.213Z,8.55
2017-04-18T11:00:04.447Z,8.54
2017-04-18T11:01:04.181Z,8.76
2017-04-18T11:02:04.147Z,8.78
2017-04-18T11:03:04.140Z,8.91
2017-04-18T11:04:04.125Z,8.98
2017-04-18T11:05:04.080Z,9.06
2017-04-18T11:06:04.060Z,9.06
2017-04-18T11:07:04.032Z,9.12
2017-04-18T11:08:04.010Z,9.08
2017-04-18T11:09:03.990Z,9.1
2017-04-18T11:10:03.970Z,9.03
2017-04-18T11:11:03.945Z,9.08
2017-04-18T11:12:03.931Z,8.86
2017-04-18T11:13:03.950Z,8.73
2017-04-18T11:14:03.906Z,8.82
2017-04-18T11:15:03.868Z,8.8
2017-04-18T11:16:03.840Z,8.83
2017-04-18T11:17:04.041Z,8.7
2017-04-18T11:18:03.782Z,8.75
2017-04-18T11:19:03.479Z,8.65
2017-04-18T11:20:03.747Z,8.49
2017-04-18T11:21:03.721Z,8.47
2017-04-18T11:22:03.756Z,8.36
2017-04-18T11:23:03.674Z,8.25
2017-04-18T11:24:03.656Z,8.07
2017-04-18T11:25:03.653Z,8.03
2017-04-18T11:26:03.614Z,7.92
2017-04-18T11:27:03.592Z,7.77
2017-04-18T11:28:03.567Z,7.77
2017-04-18T11:29:03.552Z,7.69
2017-04-18T11:30:03.562Z,7.67
2017-04-18T11:31:03.499Z,7.67
2017-04-18T11:32:03.496Z,7.5
2017-04-18T11:33:03.457Z,7.45
2017-04-18T11:34:03.606Z,7.29
2017-04-18T11:35:03.398Z,7.15
2017-04-18T11:36:03.378Z,6.94
2017-04-18T11:37:03.360Z,6.86
2017-04-18T11:38:03.331Z,6.76
2017-04-18T11:39:03.306Z,6.6
2017-04-18T11:40:03.281Z,6.48
2017-04-18T11:41:03.311Z,6.33
2017-04-18T11:42:03.236Z,6.32
2017-04-18T11:43:02.917Z,6.3
2017-04-18T11:44:02.942Z,6.27
2017-04-18T11:45:03.175Z,6.35
2017-04-18T11:46:03.905Z,6.43
2017-04-18T11:47:03.114Z,6.5
2017-04-18T11:48:03.094Z,6.68
2017-04-18T11:49:03.070Z,6.69
2017-04-18T11:50:03.045Z,6.86
2017-04-18T11:51:02.723Z,6.99
2017-04-18T11:52:03.008Z,7.15
2017-04-18T11:53:02.975Z,7.29
2017-04-18T11:54:02.948Z,7.32
2017-04-18T11:55:02.954Z,7.39
2017-04-18T11:56:02.963Z,7.44
2017-04-18T11:57:02.885Z,7.5
2017-04-18T11:58:02.863Z,7.48
2017-04-18T11:59:02.888Z,7.62
2017-04-18T12:00:02.810Z,7.48
2017-04-18T12:01:02.786Z,7.51
2017-04-18T12:02:02.762Z,7.48
2017-04-18T12:03:02.780Z,7.5
2017-04-18T12:04:02.737Z,7.62
2017-04-18T12:05:02.695Z,7.62
2017-04-18T12:06:02.381Z,7.57
2017-04-18T12:07:02.657Z,7.69
2017-04-18T12:08:02.633Z,7.76
2017-04-18T12:09:02.774Z,7.81
2017-04-18T12:10:02.729Z,7.84
2017-04-18T12:11:04.411Z,7.86
2017-04-18T12:12:02.541Z,7.89
2017-04-18T12:13:02.511Z,7.92
2017-04-18T12:14:02.495Z,7.94
2017-04-18T12:15:02.469Z,7.89
2017-04-18T12:16:02.447Z,7.94
2017-04-18T12:17:02.428Z,7.89
2017-04-18T12:18:02.401Z,7.76
2017-04-18T12:19:02.376Z,7.73
2017-04-18T12:20:02.402Z,7.66
2017-04-18T12:21:02.334Z,7.73
2017-04-18T12:22:02.300Z,7.54
2017-04-18T12:23:02.285Z,7.47
2017-04-18T12:24:02.264Z,7.33
2017-04-18T12:25:02.250Z,7.08
2017-04-18T12:26:02.221Z,6.69
2017-04-18T12:27:02.189Z,6.28
2017-04-18T12:28:02.175Z,5.95
2017-04-18T12:29:02.149Z,5.74
2017-04-18T12:30:02.124Z,5.59
2017-04-18T12:31:02.094Z,5.44
2017-04-18T12:32:02.072Z,5.3
2017-04-18T12:33:02.050Z,5.27
2017-04-18T12:34:02.019Z,5.24
2017-04-18T12:35:02.000Z,5.24
2017-04-18T12:36:01.975Z,5.2
2017-04-18T12:37:01.952Z,5.14
2017-04-18T12:38:01.925Z,5.27
2017-04-18T12:39:01.905Z,5.15
2017-04-18T12:40:01.874Z,5.17
2017-04-18T12:41:01.552Z,5.05
2017-04-18T12:42:01.839Z,5.05
2017-04-18T12:43:01.802Z,4.96
2017-04-18T12:44:01.775Z,4.79
2017-04-18T12:45:01.992Z,4.54
2017-04-18T12:46:01.735Z,4.53
2017-04-18T12:47:01.708Z,4.39
2017-04-18T12:48:01.682Z,4.25
2017-04-18T12:49:01.658Z,4.08
2017-04-18T12:50:01.640Z,4
2017-04-18T12:51:02.761Z,4.04
2017-04-18T12:52:01.582Z,4.07
2017-04-18T12:53:01.556Z,4
2017-04-18T12:54:01.534Z,3.89
2017-04-18T12:55:01.504Z,3.88
2017-04-18T12:56:01.529Z,3.92
2017-04-18T12:57:01.450Z,3.92
2017-04-18T12:58:01.427Z,4.04
2017-04-18T12:59:01.415Z,4.07
2017-04-18T13:00:01.377Z,4.11
2017-04-18T13:01:01.069Z,4.11
2017-04-18T13:02:01.320Z,4.28
2017-04-18T13:03:01.300Z,4.42
2017-04-18T13:04:01.268Z,4.53
2017-04-18T13:05:00.953Z,4.46
2017-04-18T13:06:01.233Z,4.47
2017-04-18T13:07:01.195Z,4.57
2017-04-18T13:08:01.470Z,4.72
2017-04-18T13:09:01.146Z,4.74
2017-04-18T13:10:01.120Z,4.91
2017-04-18T13:11:01.112Z,5.04
2017-04-18T13:12:01.218Z,5.06
2017-04-18T13:13:01.040Z,5.26
2017-04-18T13:14:01.023Z,5.41
2017-04-18T13:15:00.993Z,5.44
2017-04-18T13:16:00.968Z,5.55
2017-04-18T13:17:00.953Z,5.66
2017-04-18T13:18:00.917Z,5.75
2017-04-18T13:19:00.893Z,5.85
2017-04-18T13:20:00.872Z,5.85
2017-04-18T13:21:01.061Z,5.88